sensor_id;sensor_type;location;lat;lon;timestamp;pressure;altitude;pressure_sealevel;temperature;humidity
5462;BME280;912;48.130;11.348;2022-08-25T00:00:09;95536.45;;;15.28;100.00
5462;BME280;912;48.130;11.348;2022-08-25T00:05:26;95522.80;;;15.18;100.00
5462;BME280;912;48.130;11.348;2022-08-25T00:08:07;95523.39;;;15.14;100.00
5462;BME280;912;48.130;11.348;2022-08-25T00:10:48;95527.89;;;15.11;100.00
5462;BME280;912;48.130;11.348;2022-08-25T00:13:30;95523.20;;;15.07;100.00
5462;BME280;912;48.130;11.348;2022-08-25T00:16:13;95519.17;;;15.09;100.00
5462;BME280;912;48.130;11.348;2022-08-25T00:18:56;95520.45;;;15.07;100.00
5462;BME280;912;48.130;11.348;2022-08-25T00:21:38;95519.92;;;15.09;100.00
5462;BME280;912;48.130;11.348;2022-08-25T00:24:20;95521.84;;;14.98;100.00
5462;BME280;912;48.130;11.348;2022-08-25T00:27:03;95529.45;;;14.89;100.00
5462;BME280;912;48.130;11.348;2022-08-25T00:29:45;95518.30;;;14.89;100.00
5462;BME280;912;48.130;11.348;2022-08-25T00:32:26;95516.98;;;14.86;100.00
5462;BME280;912;48.130;11.348;2022-08-25T00:35:54;95516.66;;;14.78;100.00
5462;BME280;912;48.130;11.348;2022-08-25T00:38:39;95518.38;;;14.75;100.00
5462;BME280;912;48.130;11.348;2022-08-25T00:41:21;95514.16;;;14.75;100.00
5462;BME280;912;48.130;11.348;2022-08-25T00:44:03;95516.61;;;14.80;100.00
5462;BME280;912;48.130;11.348;2022-08-25T00:46:49;95510.97;;;14.76;100.00
5462;BME280;912;48.130;11.348;2022-08-25T00:49:41;95506.64;;;14.74;100.00
5462;BME280;912;48.130;11.348;2022-08-25T00:52:26;95509.39;;;14.82;100.00
5462;BME280;912;48.130;11.348;2022-08-25T00:55:17;95503.73;;;14.81;100.00
5462;BME280;912;48.130;11.348;2022-08-25T00:58:04;95501.14;;;14.83;100.00
5462;BME280;912;48.130;11.348;2022-08-25T01:00:40;95502.28;;;14.91;100.00
5462;BME280;912;48.130;11.348;2022-08-25T01:03:20;95501.52;;;14.86;100.00
5462;BME280;912;48.130;11.348;2022-08-25T01:06:04;95497.77;;;14.84;100.00
5462;BME280;912;48.130;11.348;2022-08-25T01:08:46;95497.20;;;14.79;100.00
5462;BME280;912;48.130;11.348;2022-08-25T01:14:05;95499.82;;;14.75;100.00
5462;BME280;912;48.130;11.348;2022-08-25T01:16:47;95495.73;;;14.70;100.00
5462;BME280;912;48.130;11.348;2022-08-25T01:19:29;95490.80;;;14.69;100.00
5462;BME280;912;48.130;11.348;2022-08-25T01:22:10;95493.28;;;14.65;100.00
5462;BME280;912;48.130;11.348;2022-08-25T01:24:58;95496.99;;;14.66;100.00
5462;BME280;912;48.130;11.348;2022-08-25T01:27:37;95495.66;;;14.71;100.00
5462;BME280;912;48.130;11.348;2022-08-25T01:30:22;95495.85;;;14.70;100.00
5462;BME280;912;48.130;11.348;2022-08-25T01:35:50;95492.11;;;14.58;100.00
5462;BME280;912;48.130;11.348;2022-08-25T01:38:32;95489.92;;;14.44;100.00
5462;BME280;912;48.130;11.348;2022-08-25T01:41:16;95491.38;;;14.41;100.00
5462;BME280;912;48.130;11.348;2022-08-25T01:43:56;95490.05;;;14.36;100.00
5462;BME280;912;48.130;11.348;2022-08-25T01:46:37;95488.27;;;14.33;100.00
5462;BME280;912;48.130;11.348;2022-08-25T01:49:19;95487.93;;;14.35;100.00
5462;BME280;912;48.130;11.348;2022-08-25T01:52:18;95487.67;;;14.29;100.00
5462;BME280;912;48.130;11.348;2022-08-25T01:54:55;95489.33;;;14.26;100.00
5462;BME280;912;48.130;11.348;2022-08-25T01:57:37;95487.45;;;14.19;100.00
5462;BME280;912;48.130;11.348;2022-08-25T02:00:19;95483.69;;;14.22;100.00
5462;BME280;912;48.130;11.348;2022-08-25T02:03:01;95481.95;;;14.18;100.00
5462;BME280;912;48.130;11.348;2022-08-25T02:05:43;95482.35;;;14.13;100.00
5462;BME280;912;48.130;11.348;2022-08-25T02:08:24;95480.80;;;14.14;100.00
5462;BME280;912;48.130;11.348;2022-08-25T02:11:08;95483.70;;;14.14;100.00
5462;BME280;912;48.130;11.348;2022-08-25T02:13:47;95480.68;;;14.04;100.00
5462;BME280;912;48.130;11.348;2022-08-25T02:16:35;95482.80;;;14.01;100.00
5462;BME280;912;48.130;11.348;2022-08-25T02:19:16;95479.48;;;13.97;100.00
5462;BME280;912;48.130;11.348;2022-08-25T02:22:01;95483.53;;;13.92;100.00
5462;BME280;912;48.130;11.348;2022-08-25T02:24:42;95487.72;;;13.89;100.00
5462;BME280;912;48.130;11.348;2022-08-25T02:27:27;95485.23;;;13.91;100.00
5462;BME280;912;48.130;11.348;2022-08-25T02:30:12;95476.48;;;13.94;100.00
5462;BME280;912;48.130;11.348;2022-08-25T02:32:53;95476.48;;;13.91;100.00
5462;BME280;912;48.130;11.348;2022-08-25T02:35:50;95477.27;;;13.85;100.00
5462;BME280;912;48.130;11.348;2022-08-25T02:38:33;95481.02;;;13.87;100.00
5462;BME280;912;48.130;11.348;2022-08-25T02:41:17;95482.14;;;13.94;100.00
5462;BME280;912;48.130;11.348;2022-08-25T02:43:59;95481.93;;;13.94;100.00
5462;BME280;912;48.130;11.348;2022-08-25T02:46:41;95476.20;;;13.94;100.00
5462;BME280;912;48.130;11.348;2022-08-25T02:49:24;95476.97;;;13.89;100.00
5462;BME280;912;48.130;11.348;2022-08-25T02:52:06;95470.27;;;13.89;100.00
5462;BME280;912;48.130;11.348;2022-08-25T02:54:51;95467.17;;;13.87;100.00
5462;BME280;912;48.130;11.348;2022-08-25T02:57:32;95464.52;;;13.79;100.00
5462;BME280;912;48.130;11.348;2022-08-25T03:00:17;95461.20;;;13.68;100.00
5462;BME280;912;48.130;11.348;2022-08-25T03:05:36;95464.19;;;13.43;100.00
5462;BME280;912;48.130;11.348;2022-08-25T03:08:17;95472.03;;;13.40;100.00
5462;BME280;912;48.130;11.348;2022-08-25T03:10:59;95473.63;;;13.31;100.00
5462;BME280;912;48.130;11.348;2022-08-25T03:13:41;95465.38;;;13.36;100.00
5462;BME280;912;48.130;11.348;2022-08-25T03:16:23;95463.03;;;13.34;100.00
5462;BME280;912;48.130;11.348;2022-08-25T03:20:57;95466.63;;;13.29;100.00
5462;BME280;912;48.130;11.348;2022-08-25T03:23:39;95463.56;;;13.23;100.00
5462;BME280;912;48.130;11.348;2022-08-25T03:26:21;95464.66;;;13.12;100.00
5462;BME280;912;48.130;11.348;2022-08-25T03:29:11;95463.56;;;13.14;100.00
5462;BME280;912;48.130;11.348;2022-08-25T03:31:53;95462.84;;;13.16;100.00
5462;BME280;912;48.130;11.348;2022-08-25T03:35:50;95460.95;;;13.03;100.00
5462;BME280;912;48.130;11.348;2022-08-25T03:38:32;95460.06;;;13.09;100.00
5462;BME280;912;48.130;11.348;2022-08-25T03:41:16;95461.68;;;13.07;100.00
5462;BME280;912;48.130;11.348;2022-08-25T03:43:59;95460.30;;;12.99;100.00
5462;BME280;912;48.130;11.348;2022-08-25T03:49:17;95451.63;;;12.96;100.00
5462;BME280;912;48.130;11.348;2022-08-25T03:51:57;95456.57;;;12.98;100.00
5462;BME280;912;48.130;11.348;2022-08-25T03:54:39;95455.94;;;12.99;100.00
5462;BME280;912;48.130;11.348;2022-08-25T03:57:21;95460.44;;;13.08;100.00
5462;BME280;912;48.130;11.348;2022-08-25T04:02:41;95459.46;;;13.08;100.00
5462;BME280;912;48.130;11.348;2022-08-25T04:05:23;95460.88;;;13.08;100.00
5462;BME280;912;48.130;11.348;2022-08-25T04:08:05;95454.67;;;13.08;100.00
5462;BME280;912;48.130;11.348;2022-08-25T04:10:46;95455.19;;;13.10;100.00
5462;BME280;912;48.130;11.348;2022-08-25T04:13:28;95456.89;;;13.15;100.00
5462;BME280;912;48.130;11.348;2022-08-25T04:16:11;95460.09;;;13.18;100.00
5462;BME280;912;48.130;11.348;2022-08-25T04:18:52;95457.75;;;13.17;100.00
5462;BME280;912;48.130;11.348;2022-08-25T04:21:34;95454.44;;;13.15;100.00
5462;BME280;912;48.130;11.348;2022-08-25T04:24:15;95454.97;;;13.17;100.00
5462;BME280;912;48.130;11.348;2022-08-25T04:26:57;95452.13;;;13.16;100.00
5462;BME280;912;48.130;11.348;2022-08-25T04:29:38;95456.98;;;13.20;100.00
5462;BME280;912;48.130;11.348;2022-08-25T04:32:20;95460.95;;;13.25;100.00
5462;BME280;912;48.130;11.348;2022-08-25T04:35:50;95462.88;;;13.27;100.00
5462;BME280;912;48.130;11.348;2022-08-25T04:38:32;95459.66;;;13.31;100.00
5462;BME280;912;48.130;11.348;2022-08-25T04:41:14;95457.52;;;13.41;100.00
5462;BME280;912;48.130;11.348;2022-08-25T04:43:56;95455.54;;;13.46;100.00
5462;BME280;912;48.130;11.348;2022-08-25T04:46:37;95459.73;;;13.47;100.00
5462;BME280;912;48.130;11.348;2022-08-25T04:49:22;95449.06;;;13.49;100.00
5462;BME280;912;48.130;11.348;2022-08-25T04:52:04;95447.61;;;13.52;100.00
5462;BME280;912;48.130;11.348;2022-08-25T04:54:46;95452.49;;;13.51;100.00
5462;BME280;912;48.130;11.348;2022-08-25T04:57:30;95453.14;;;13.54;100.00
5462;BME280;912;48.130;11.348;2022-08-25T05:00:14;95450.48;;;13.52;100.00
5462;BME280;912;48.130;11.348;2022-08-25T05:02:56;95449.91;;;13.61;100.00
5462;BME280;912;48.130;11.348;2022-08-25T05:05:37;95448.44;;;13.55;100.00
5462;BME280;912;48.130;11.348;2022-08-25T05:08:19;95450.48;;;13.54;100.00
5462;BME280;912;48.130;11.348;2022-08-25T05:11:05;95453.60;;;13.64;100.00
5462;BME280;912;48.130;11.348;2022-08-25T05:13:47;95452.02;;;13.71;100.00
5462;BME280;912;48.130;11.348;2022-08-25T05:16:30;95453.74;;;13.80;100.00
5462;BME280;912;48.130;11.348;2022-08-25T05:19:14;95449.94;;;13.86;100.00
5462;BME280;912;48.130;11.348;2022-08-25T05:21:56;95448.34;;;13.93;100.00
5462;BME280;912;48.130;11.348;2022-08-25T05:24:38;95449.50;;;13.94;100.00
5462;BME280;912;48.130;11.348;2022-08-25T05:27:20;95449.26;;;14.03;100.00
5462;BME280;912;48.130;11.348;2022-08-25T05:30:06;95456.71;;;14.18;100.00
5462;BME280;912;48.130;11.348;2022-08-25T05:32:48;95451.22;;;14.18;100.00
5462;BME280;912;48.130;11.348;2022-08-25T05:35:50;95451.20;;;14.21;100.00
5462;BME280;912;48.130;11.348;2022-08-25T05:38:32;95451.23;;;14.38;100.00
5462;BME280;912;48.130;11.348;2022-08-25T05:41:14;95455.46;;;14.55;100.00
5462;BME280;912;48.130;11.348;2022-08-25T05:43:56;95453.17;;;14.71;100.00
5462;BME280;912;48.130;11.348;2022-08-25T05:46:38;95448.22;;;14.84;100.00
5462;BME280;912;48.130;11.348;2022-08-25T05:49:20;95448.75;;;14.96;100.00
5462;BME280;912;48.130;11.348;2022-08-25T05:52:01;95449.41;;;15.12;100.00
5462;BME280;912;48.130;11.348;2022-08-25T05:54:43;95448.59;;;15.33;100.00
5462;BME280;912;48.130;11.348;2022-08-25T05:57:25;95446.06;;;15.48;100.00
5462;BME280;912;48.130;11.348;2022-08-25T06:00:09;95444.77;;;15.65;100.00
5462;BME280;912;48.130;11.348;2022-08-25T06:02:50;95444.33;;;15.81;100.00
5462;BME280;912;48.130;11.348;2022-08-25T06:05:32;95448.54;;;15.99;100.00
5462;BME280;912;48.130;11.348;2022-08-25T06:10:51;95443.80;;;16.31;100.00
5462;BME280;912;48.130;11.348;2022-08-25T06:13:32;95440.04;;;16.53;100.00
5462;BME280;912;48.130;11.348;2022-08-25T06:16:15;95434.64;;;16.69;100.00
5462;BME280;912;48.130;11.348;2022-08-25T06:18:56;95431.80;;;16.79;100.00
5462;BME280;912;48.130;11.348;2022-08-25T06:21:38;95431.45;;;16.97;100.00
5462;BME280;912;48.130;11.348;2022-08-25T06:24:23;95431.86;;;17.10;100.00
5462;BME280;912;48.130;11.348;2022-08-25T06:27:05;95428.17;;;17.27;100.00
5462;BME280;912;48.130;11.348;2022-08-25T06:29:47;95427.39;;;17.47;100.00
5462;BME280;912;48.130;11.348;2022-08-25T06:32:30;95432.44;;;17.65;100.00
5462;BME280;912;48.130;11.348;2022-08-25T06:35:52;95431.75;;;17.77;100.00
5462;BME280;912;48.130;11.348;2022-08-25T06:38:32;95432.34;;;17.95;100.00
5462;BME280;912;48.130;11.348;2022-08-25T06:41:13;95433.61;;;18.14;100.00
5462;BME280;912;48.130;11.348;2022-08-25T06:43:56;95437.56;;;18.18;100.00
5462;BME280;912;48.130;11.348;2022-08-25T06:46:37;95435.71;;;18.24;100.00
5462;BME280;912;48.130;11.348;2022-08-25T06:49:19;95436.77;;;18.49;100.00
5462;BME280;912;48.130;11.348;2022-08-25T06:52:01;95433.20;;;18.72;100.00
5462;BME280;912;48.130;11.348;2022-08-25T06:54:45;95435.72;;;18.72;100.00
5462;BME280;912;48.130;11.348;2022-08-25T06:57:27;95435.92;;;18.78;100.00
5462;BME280;912;48.130;11.348;2022-08-25T07:00:12;95432.16;;;18.92;100.00
5462;BME280;912;48.130;11.348;2022-08-25T07:02:54;95425.98;;;19.05;100.00
5462;BME280;912;48.130;11.348;2022-08-25T07:05:36;95429.47;;;19.14;100.00
5462;BME280;912;48.130;11.348;2022-08-25T07:10:52;95439.05;;;19.55;100.00
5462;BME280;912;48.130;11.348;2022-08-25T07:13:34;95445.09;;;19.60;100.00
5462;BME280;912;48.130;11.348;2022-08-25T07:16:17;95440.94;;;19.87;100.00
5462;BME280;912;48.130;11.348;2022-08-25T07:18:58;95439.27;;;20.05;100.00
5462;BME280;912;48.130;11.348;2022-08-25T07:21:40;95435.30;;;20.30;100.00
5462;BME280;912;48.130;11.348;2022-08-25T07:24:21;95433.66;;;20.55;100.00
5462;BME280;912;48.130;11.348;2022-08-25T07:27:03;95433.30;;;20.74;100.00
5462;BME280;912;48.130;11.348;2022-08-25T07:32:23;95427.81;;;20.95;100.00
5462;BME280;912;48.130;11.348;2022-08-25T07:35:50;95425.73;;;21.16;100.00
5462;BME280;912;48.130;11.348;2022-08-25T07:38:32;95424.36;;;21.31;100.00
5462;BME280;912;48.130;11.348;2022-08-25T07:41:15;95425.14;;;21.32;100.00
5462;BME280;912;48.130;11.348;2022-08-25T07:43:58;95424.61;;;21.58;100.00
5462;BME280;912;48.130;11.348;2022-08-25T07:46:40;95428.61;;;21.67;100.00
5462;BME280;912;48.130;11.348;2022-08-25T07:49:22;95432.80;;;21.86;100.00
5462;BME280;912;48.130;11.348;2022-08-25T07:52:04;95426.67;;;22.18;100.00
5462;BME280;912;48.130;11.348;2022-08-25T07:54:46;95433.59;;;22.30;100.00
5462;BME280;912;48.130;11.348;2022-08-25T07:57:28;95434.81;;;22.52;100.00
5462;BME280;912;48.130;11.348;2022-08-25T08:00:12;95435.19;;;22.58;100.00
5462;BME280;912;48.130;11.348;2022-08-25T08:02:52;95432.65;;;22.45;100.00
5462;BME280;912;48.130;11.348;2022-08-25T08:05:38;95435.53;;;22.57;100.00
5462;BME280;912;48.130;11.348;2022-08-25T08:08:18;95441.67;;;22.69;100.00
5462;BME280;912;48.130;11.348;2022-08-25T08:11:00;95442.56;;;23.00;100.00
5462;BME280;912;48.130;11.348;2022-08-25T08:13:45;95440.05;;;23.26;100.00
5462;BME280;912;48.130;11.348;2022-08-25T08:16:27;95443.05;;;23.16;100.00
5462;BME280;912;48.130;11.348;2022-08-25T08:19:08;95439.22;;;23.35;100.00
5462;BME280;912;48.130;11.348;2022-08-25T08:21:50;95440.91;;;23.04;100.00
5462;BME280;912;48.130;11.348;2022-08-25T08:24:32;95437.28;;;23.14;100.00
5462;BME280;912;48.130;11.348;2022-08-25T08:27:16;95438.64;;;23.42;100.00
5462;BME280;912;48.130;11.348;2022-08-25T08:29:58;95436.13;;;23.45;100.00
5462;BME280;912;48.130;11.348;2022-08-25T08:32:40;95431.59;;;23.34;100.00
5462;BME280;912;48.130;11.348;2022-08-25T08:35:58;95423.61;;;23.90;100.00
5462;BME280;912;48.130;11.348;2022-08-25T08:38:40;95423.55;;;24.17;100.00
5462;BME280;912;48.130;11.348;2022-08-25T08:42:00;95419.29;;;24.50;100.00
5462;BME280;912;48.130;11.348;2022-08-25T08:45:05;95420.69;;;24.85;100.00
5462;BME280;912;48.130;11.348;2022-08-25T08:47:49;95413.72;;;24.57;100.00
5462;BME280;912;48.130;11.348;2022-08-25T08:50:38;95411.57;;;25.18;100.00
5462;BME280;912;48.130;11.348;2022-08-25T08:53:43;95402.08;;;25.35;100.00
5462;BME280;912;48.130;11.348;2022-08-25T08:56:27;95402.08;;;25.60;100.00
5462;BME280;912;48.130;11.348;2022-08-25T08:59:19;95395.28;;;25.87;100.00
5462;BME280;912;48.130;11.348;2022-08-25T09:02:01;95396.04;;;25.93;100.00
5462;BME280;912;48.130;11.348;2022-08-25T09:04:48;95389.86;;;27.37;95.30
5462;BME280;912;48.130;11.348;2022-08-25T09:07:44;95390.93;;;30.00;80.55
5462;BME280;912;48.130;11.348;2022-08-25T09:10:23;95395.97;;;31.10;72.06
5462;BME280;912;48.130;11.348;2022-08-25T09:13:12;95393.77;;;32.35;71.78
5462;BME280;912;48.130;11.348;2022-08-25T09:19:17;95397.20;;;31.62;68.83
5462;BME280;912;48.130;11.348;2022-08-25T09:22:01;95394.71;;;34.01;63.11
5462;BME280;912;48.130;11.348;2022-08-25T09:24:56;95401.92;;;32.66;62.66
5462;BME280;912;48.130;11.348;2022-08-25T09:27:45;95393.12;;;33.75;62.04
5462;BME280;912;48.130;11.348;2022-08-25T09:30:22;95386.30;;;36.22;56.12
5462;BME280;912;48.130;11.348;2022-08-25T09:35:50;95389.70;;;35.22;57.04
5462;BME280;912;48.130;11.348;2022-08-25T09:38:32;95373.78;;;36.92;50.44
5462;BME280;912;48.130;11.348;2022-08-25T09:41:15;95372.17;;;38.16;52.75
5462;BME280;912;48.130;11.348;2022-08-25T09:43:56;95368.52;;;38.65;49.22
5462;BME280;912;48.130;11.348;2022-08-25T09:46:38;95364.42;;;37.96;47.92
5462;BME280;912;48.130;11.348;2022-08-25T09:49:19;95384.88;;;31.76;55.77
5462;BME280;912;48.130;11.348;2022-08-25T09:54:49;95368.98;;;33.28;54.47
5462;BME280;912;48.130;11.348;2022-08-25T09:57:43;95363.34;;;33.57;57.54
5462;BME280;912;48.130;11.348;2022-08-25T10:00:25;95367.84;;;33.30;53.63
5462;BME280;912;48.130;11.348;2022-08-25T10:03:19;95359.27;;;36.07;48.44
5462;BME280;912;48.130;11.348;2022-08-25T10:06:06;95358.11;;;35.34;49.71
5462;BME280;912;48.130;11.348;2022-08-25T10:11:37;95344.01;;;39.12;47.00
5462;BME280;912;48.130;11.348;2022-08-25T10:14:35;95350.80;;;37.17;46.82
5462;BME280;912;48.130;11.348;2022-08-25T10:17:23;95352.96;;;35.65;51.42
5462;BME280;912;48.130;11.348;2022-08-25T10:20:15;95344.20;;;39.44;45.80
5462;BME280;912;48.130;11.348;2022-08-25T10:23:07;95342.94;;;38.76;44.70
5462;BME280;912;48.130;11.348;2022-08-25T10:25:40;95338.28;;;38.27;44.39
5462;BME280;912;48.130;11.348;2022-08-25T10:28:26;95350.67;;;35.19;50.82
5462;BME280;912;48.130;11.348;2022-08-25T10:31:14;95345.05;;;36.10;45.10
5462;BME280;912;48.130;11.348;2022-08-25T10:35:58;95345.84;;;34.34;49.58
5462;BME280;912;48.130;11.348;2022-08-25T10:38:42;95327.89;;;39.98;44.40
5462;BME280;912;48.130;11.348;2022-08-25T10:50:28;95330.63;;;35.88;47.48
5462;BME280;912;48.130;11.348;2022-08-25T10:53:46;95323.00;;;35.83;48.29
5462;BME280;912;48.130;11.348;2022-08-25T10:56:40;95329.34;;;33.45;52.61
5462;BME280;912;48.130;11.348;2022-08-25T10:59:29;95324.75;;;34.04;52.60
5462;BME280;912;48.130;11.348;2022-08-25T11:05:31;95322.41;;;33.96;51.31
5462;BME280;912;48.130;11.348;2022-08-25T11:08:37;95333.58;;;32.18;56.50
5462;BME280;912;48.130;11.348;2022-08-25T11:11:25;95321.67;;;32.25;57.05
5462;BME280;912;48.130;11.348;2022-08-25T11:14:23;95313.34;;;31.66;59.47
5462;BME280;912;48.130;11.348;2022-08-25T11:17:25;95319.32;;;30.75;64.40
5462;BME280;912;48.130;11.348;2022-08-25T11:20:10;95315.33;;;31.07;62.74
5462;BME280;912;48.130;11.348;2022-08-25T11:22:59;95312.52;;;31.79;59.97
5462;BME280;912;48.130;11.348;2022-08-25T11:25:42;95304.73;;;32.91;61.93
5462;BME280;912;48.130;11.348;2022-08-25T11:28:29;95296.45;;;33.20;56.90
5462;BME280;912;48.130;11.348;2022-08-25T11:31:08;95294.68;;;33.57;55.60
5462;BME280;912;48.130;11.348;2022-08-25T11:35:53;95293.55;;;33.10;57.18
5462;BME280;912;48.130;11.348;2022-08-25T11:41:23;95287.79;;;34.74;53.02
5462;BME280;912;48.130;11.348;2022-08-25T11:47:26;95281.11;;;36.83;49.40
5462;BME280;912;48.130;11.348;2022-08-25T11:50:07;95280.77;;;38.04;45.27
5462;BME280;912;48.130;11.348;2022-08-25T11:52:51;95286.24;;;39.66;43.03
5462;BME280;912;48.130;11.348;2022-08-25T11:55:50;95285.95;;;39.83;44.51
5462;BME280;912;48.130;11.348;2022-08-25T11:58:47;95278.17;;;42.84;40.17
5462;BME280;912;48.130;11.348;2022-08-25T12:02:01;95304.06;;;34.70;44.72
5462;BME280;912;48.130;11.348;2022-08-25T12:04:42;95300.61;;;33.83;50.55
5462;BME280;912;48.130;11.348;2022-08-25T12:07:25;95292.56;;;35.83;46.96
5462;BME280;912;48.130;11.348;2022-08-25T12:10:09;95295.48;;;35.37;46.27
5462;BME280;912;48.130;11.348;2022-08-25T12:12:56;95277.06;;;40.34;40.51
5462;BME280;912;48.130;11.348;2022-08-25T12:15:56;95274.67;;;41.03;38.19
5462;BME280;912;48.130;11.348;2022-08-25T12:18:38;95275.39;;;40.77;39.10
5462;BME280;912;48.130;11.348;2022-08-25T12:21:31;95272.02;;;42.62;37.22
5462;BME280;912;48.130;11.348;2022-08-25T12:24:13;95267.25;;;43.12;37.08
5462;BME280;912;48.130;11.348;2022-08-25T12:26:57;95278.31;;;40.21;36.76
5462;BME280;912;48.130;11.348;2022-08-25T12:29:44;95276.29;;;38.53;40.13
5462;BME280;912;48.130;11.348;2022-08-25T12:32:43;95288.15;;;35.20;43.56
5462;BME280;912;48.130;11.348;2022-08-25T12:35:56;95266.37;;;37.93;42.08
5462;BME280;912;48.130;11.348;2022-08-25T12:38:42;95273.42;;;39.65;39.63
5462;BME280;912;48.130;11.348;2022-08-25T12:41:26;95257.60;;;41.77;39.02
5462;BME280;912;48.130;11.348;2022-08-25T12:47:33;95261.38;;;42.93;35.73
5462;BME280;912;48.130;11.348;2022-08-25T12:50:37;95244.60;;;45.09;35.14
5462;BME280;912;48.130;11.348;2022-08-25T12:53:20;95252.13;;;42.52;37.58
5462;BME280;912;48.130;11.348;2022-08-25T12:56:02;95252.72;;;44.02;34.77
5462;BME280;912;48.130;11.348;2022-08-25T12:58:55;95251.84;;;43.19;35.78
5462;BME280;912;48.130;11.348;2022-08-25T13:05:15;95254.68;;;36.80;42.71
5462;BME280;912;48.130;11.348;2022-08-25T13:08:00;95267.48;;;34.18;47.58
5462;BME280;912;48.130;11.348;2022-08-25T13:13:36;95259.81;;;32.06;53.40
5462;BME280;912;48.130;11.348;2022-08-25T13:16:16;95267.87;;;31.57;54.96
5462;BME280;912;48.130;11.348;2022-08-25T13:18:57;95250.06;;;35.57;47.87
5462;BME280;912;48.130;11.348;2022-08-25T13:21:41;95251.31;;;35.12;46.86
5462;BME280;912;48.130;11.348;2022-08-25T13:24:32;95249.86;;;34.89;47.24
5462;BME280;912;48.130;11.348;2022-08-25T13:27:21;95248.38;;;37.51;45.07
5462;BME280;912;48.130;11.348;2022-08-25T13:30:05;95236.22;;;40.69;39.94
5462;BME280;912;48.130;11.348;2022-08-25T13:32:47;95233.91;;;41.99;37.01
5462;BME280;912;48.130;11.348;2022-08-25T13:35:52;95241.94;;;38.43;42.68
5462;BME280;912;48.130;11.348;2022-08-25T13:38:38;95243.56;;;39.12;40.90
5462;BME280;912;48.130;11.348;2022-08-25T13:41:22;95242.38;;;39.74;41.23
5462;BME280;912;48.130;11.348;2022-08-25T13:44:02;95225.34;;;41.66;37.69
5462;BME280;912;48.130;11.348;2022-08-25T13:46:44;95230.68;;;42.37;37.57
5462;BME280;912;48.130;11.348;2022-08-25T13:49:29;95227.52;;;42.94;36.24
5462;BME280;912;48.130;11.348;2022-08-25T13:52:24;95224.08;;;42.72;37.74
5462;BME280;912;48.130;11.348;2022-08-25T13:55:47;95227.70;;;42.10;38.50
5462;BME280;912;48.130;11.348;2022-08-25T13:58:31;95236.27;;;39.37;39.26
5462;BME280;912;48.130;11.348;2022-08-25T14:01:15;95222.91;;;41.61;37.99
5462;BME280;912;48.130;11.348;2022-08-25T14:03:57;95215.42;;;42.29;37.18
5462;BME280;912;48.130;11.348;2022-08-25T14:06:37;95217.48;;;42.20;36.13
5462;BME280;912;48.130;11.348;2022-08-25T14:09:22;95228.44;;;36.46;42.39
5462;BME280;912;48.130;11.348;2022-08-25T14:12:04;95217.13;;;40.39;39.38
5462;BME280;912;48.130;11.348;2022-08-25T14:17:37;95217.08;;;42.75;35.48
5462;BME280;912;48.130;11.348;2022-08-25T14:20:22;95215.67;;;40.77;37.67
5462;BME280;912;48.130;11.348;2022-08-25T14:23:06;95214.19;;;41.13;38.32
5462;BME280;912;48.130;11.348;2022-08-25T14:25:49;95209.72;;;43.68;35.12
5462;BME280;912;48.130;11.348;2022-08-25T14:28:29;95220.38;;;38.03;39.51
5462;BME280;912;48.130;11.348;2022-08-25T14:31:19;95213.87;;;37.38;41.22
5462;BME280;912;48.130;11.348;2022-08-25T14:35:51;95218.16;;;38.07;39.87
5462;BME280;912;48.130;11.348;2022-08-25T14:38:32;95202.13;;;42.47;35.50
5462;BME280;912;48.130;11.348;2022-08-25T14:41:16;95209.08;;;40.98;37.15
5462;BME280;912;48.130;11.348;2022-08-25T14:43:58;95223.52;;;36.93;42.28
5462;BME280;912;48.130;11.348;2022-08-25T14:46:44;95219.11;;;38.19;41.18
5462;BME280;912;48.130;11.348;2022-08-25T14:49:26;95207.27;;;39.63;38.63
5462;BME280;912;48.130;11.348;2022-08-25T14:52:13;95202.27;;;40.00;38.63
5462;BME280;912;48.130;11.348;2022-08-25T14:54:50;95203.05;;;39.34;38.43
5462;BME280;912;48.130;11.348;2022-08-25T14:57:32;95204.56;;;35.91;42.46
5462;BME280;912;48.130;11.348;2022-08-25T15:00:14;95199.82;;;36.32;44.58
5462;BME280;912;48.130;11.348;2022-08-25T15:02:56;95202.44;;;35.83;46.35
5462;BME280;912;48.130;11.348;2022-08-25T15:05:41;95194.64;;;39.62;40.03
5462;BME280;912;48.130;11.348;2022-08-25T15:08:23;95193.88;;;40.02;38.59
5462;BME280;912;48.130;11.348;2022-08-25T15:11:10;95196.20;;;38.31;40.44
5462;BME280;912;48.130;11.348;2022-08-25T15:13:52;95200.06;;;35.85;43.30
5462;BME280;912;48.130;11.348;2022-08-25T15:16:37;95209.59;;;33.55;47.04
5462;BME280;912;48.130;11.348;2022-08-25T15:19:19;95208.50;;;32.37;50.94
5462;BME280;912;48.130;11.348;2022-08-25T15:21:59;95198.44;;;34.30;47.26
5462;BME280;912;48.130;11.348;2022-08-25T15:24:41;95188.49;;;37.33;42.17
5462;BME280;912;48.130;11.348;2022-08-25T15:27:23;95189.95;;;38.84;40.98
5462;BME280;912;48.130;11.348;2022-08-25T15:32:33;95184.72;;;40.72;39.30
5462;BME280;912;48.130;11.348;2022-08-25T15:35:53;95189.64;;;39.45;40.31
5462;BME280;912;48.130;11.348;2022-08-25T15:38:36;95177.79;;;40.66;38.33
5462;BME280;912;48.130;11.348;2022-08-25T15:43:51;95172.86;;;39.74;39.67
5462;BME280;912;48.130;11.348;2022-08-25T15:46:33;95173.53;;;39.88;39.81
5462;BME280;912;48.130;11.348;2022-08-25T15:49:15;95168.80;;;39.89;39.12
5462;BME280;912;48.130;11.348;2022-08-25T15:51:57;95168.34;;;40.19;39.20
5462;BME280;912;48.130;11.348;2022-08-25T15:54:39;95166.23;;;40.25;39.03
5462;BME280;912;48.130;11.348;2022-08-25T15:57:20;95173.56;;;38.77;40.62
5462;BME280;912;48.130;11.348;2022-08-25T16:00:05;95173.25;;;36.70;43.07
5462;BME280;912;48.130;11.348;2022-08-25T16:02:46;95166.41;;;39.93;39.61
5462;BME280;912;48.130;11.348;2022-08-25T16:05:31;95169.81;;;39.87;39.32
5462;BME280;912;48.130;11.348;2022-08-25T16:08:14;95177.16;;;38.30;40.75
5462;BME280;912;48.130;11.348;2022-08-25T16:10:55;95171.70;;;37.39;42.40